SU1367 / RA-89103 7700 Squawk Report (7th of August, 2020)

Aircraft SU95 Reg No. RA-89103 Age 3 years old
Model SSJ-100 Jet engines 2 First flight 15-09-17
Registered 30-12-17 Rollout 2017 Delivered 30-12-17
Construction No. 95142 Line No. 142 Series 95B
ADSHEX 155C0F Airline name Aeroflot Russian Airlines Owner N/A
Airfield based Moscow-Sheremetyevo~Moscow~RA First tracked N/A
Time Lat Lon Altitude Heading Speed Vertical Rate
2020-08-07 13:59:18 GMT 55.978939 37.423145 0 329 5 0
2020-08-07 13:59:04 GMT 55.978622 37.423317 0 334 7 0
2020-08-07 13:58:56 GMT 55.978367 37.423424 0 343 7 0
2020-08-07 13:57:15 GMT 55.977116 37.417892 0 61 10 0
2020-08-07 13:57:12 GMT 55.977104 37.417789 0 61 10 0
2020-08-07 13:56:52 GMT 55.976868 37.416214 0 61 10 0
2020-08-07 13:56:29 GMT 55.976658 37.414795 0 61 8 0
2020-08-07 13:56:17 GMT 55.976551 37.414070 0 61 8 0
2020-08-07 13:56:11 GMT 55.976498 37.413712 0 61 8 0
2020-08-07 13:55:50 GMT 55.976315 37.412422 0 61 8 0
2020-08-07 13:55:30 GMT 55.975983 37.411495 0 357 7 0
2020-08-07 13:55:19 GMT 55.975674 37.411526 0 334 6 0
2020-08-07 13:55:07 GMT 55.975388 37.411671 0 334 5 0
2020-08-07 13:54:56 GMT 55.975204 37.411755 0 334 8 0
2020-08-07 13:54:36 GMT 55.974644 37.412029 0 334 4 0
2020-08-07 13:54:28 GMT 55.974564 37.412052 0 334 1 0
2020-08-07 13:54:13 GMT 55.974457 37.412094 0 334 3 0
2020-08-07 13:54:06 GMT 55.974319 37.412182 0 334 7 0
2020-08-07 13:51:58 GMT 55.974243 37.434166 325 255 144 0
2020-08-07 13:51:50 GMT 55.975433 37.442093 325 255 144 -832
2020-08-07 13:51:41 GMT 55.976925 37.451618 425 255 144 -896
2020-08-07 13:51:33 GMT 55.978508 37.462006 550 255 144 -704
2020-08-07 13:51:22 GMT 55.980370 37.474625 575 256 144 -768
2020-08-07 13:51:17 GMT 55.981155 37.479774 725 256 144 -704
2020-08-07 13:51:08 GMT 55.982849 37.491177 850 256 144 -768
2020-08-07 13:50:57 GMT 55.984589 37.502914 975 255 146 -768
2020-08-07 13:50:50 GMT 55.985962 37.511818 1,075 256 146 -704
2020-08-07 13:50:46 GMT 55.986649 37.516396 1,125 256 146 -768
2020-08-07 13:50:42 GMT 55.987198 37.520309 1,175 256 147 -704
2020-08-07 13:50:38 GMT 55.987839 37.524635 1,225 256 147 -640
2020-08-07 13:50:31 GMT 55.989166 37.533627 1,425 256 145 -640
2020-08-07 13:50:26 GMT 55.990036 37.539284 1,375 256 146 -640
2020-08-07 13:50:22 GMT 55.990814 37.544529 1,625 256 154 -768
2020-08-07 13:50:17 GMT 55.991821 37.551270 1,500 255 150 -832
2020-08-07 13:50:09 GMT 55.993217 37.560799 1,600 256 153 -704
2020-08-07 13:50:01 GMT 55.995453 37.575989 1,775 255 165 -896
2020-08-07 13:49:56 GMT 55.995453 37.575989 1,750 256 160 -960
2020-08-07 13:49:46 GMT 55.997360 37.588890 1,925 256 166 -832
2020-08-07 13:49:40 GMT 55.998665 37.597706 2,000 256 168 -832
2020-08-07 13:49:36 GMT 55.999329 37.602123 2,050 256 168 -768
2020-08-07 13:49:25 GMT 56.001366 37.616158 2,175 256 167 -640
2020-08-07 13:49:19 GMT 56.002579 37.624096 2,250 255 171 -256
2020-08-07 13:49:15 GMT 56.003738 37.631695 2,250 255 171 -128
2020-08-07 13:49:10 GMT 56.004715 37.638130 2,275 256 183 -128
2020-08-07 13:49:04 GMT 56.005875 37.645821 2,275 257 184 -64
2020-08-07 13:48:59 GMT 56.006809 37.653408 2,275 260 183 64
2020-08-07 13:48:48 GMT 56.007660 37.669456 2,300 325 175 -576
2020-08-07 13:48:44 GMT 56.007183 37.675552 2,275 284 180 -128
2020-08-07 13:48:34 GMT 56.004181 37.688847 2,325 307 177 -704
2020-08-07 13:48:25 GMT 55.998524 37.699673 2,400 324 175 -640
2020-08-07 13:48:18 GMT 55.994843 37.704330 2,475 324 175 -640
2020-08-07 13:48:15 GMT 55.992893 37.706711 2,500 325 175 -576
2020-08-07 13:48:08 GMT 55.985306 37.716236 2,625 325 175 -576
2020-08-07 13:47:55 GMT 55.979252 37.723789 2,950 326 175 -640
2020-08-07 13:47:47 GMT 55.974060 37.730297 2,875 326 176 -576
2020-08-07 13:47:41 GMT 55.970314 37.734947 2,850 325 176 -576
2020-08-07 13:47:37 GMT 55.967148 37.738895 2,900 326 176 -640
2020-08-07 13:47:34 GMT 55.965363 37.741199 2,925 326 176 -576
2020-08-07 13:47:25 GMT 55.958771 37.749439 3,025 325 175 -512
2020-08-07 13:47:17 GMT 55.953506 37.756016 3,100 326 175 -576
2020-08-07 13:47:12 GMT 55.950298 37.760010 3,150 326 174 -512
2020-08-07 13:47:07 GMT 55.947552 37.763443 3,150 326 174 -512
2020-08-07 13:47:04 GMT 55.943546 37.768333 3,225 326 173 -192
2020-08-07 13:46:51 GMT 55.937027 37.776405 3,250 326 174 0
2020-08-07 13:46:46 GMT 55.933502 37.780735 3,250 326 174 -192
2020-08-07 13:46:41 GMT 55.930023 37.784981 3,275 326 176 -192
2020-08-07 13:46:34 GMT 55.925537 37.790470 3,300 326 175 -192
2020-08-07 13:46:31 GMT 55.923203 37.793400 3,300 326 174 128
2020-08-07 13:46:25 GMT 55.919247 37.798203 3,275 326 176 64
2020-08-07 13:46:21 GMT 55.916592 37.801468 3,250 326 176 64
2020-08-07 13:46:10 GMT 55.909653 37.810032 3,250 326 179 0
2020-08-07 13:46:05 GMT 55.906025 37.814426 3,250 325 191 -1024
2020-08-07 13:45:59 GMT 55.901043 37.820606 3,275 326 188 -640
2020-08-07 13:45:55 GMT 55.898254 37.824013 3,300 325 191 -1024
2020-08-07 13:45:48 GMT 55.893875 37.829533 3,375 325 191 -1024
2020-08-07 13:45:45 GMT 55.891479 37.832504 3,450 326 192 -960
2020-08-07 13:45:34 GMT 55.883331 37.842575 3,625 326 194 -1024
2020-08-07 13:45:30 GMT 55.879444 37.847385 3,725 326 195 -960
2020-08-07 13:45:27 GMT 55.877838 37.849400 3,750 325 195 -960
2020-08-07 13:45:19 GMT 55.872509 37.856228 3,875 326 195 -1088
2020-08-07 13:45:14 GMT 55.868690 37.860603 3,975 333 194 -1152
2020-08-07 13:45:09 GMT 55.864746 37.864380 4,075 336 195 -1152
2020-08-07 13:45:05 GMT 55.861038 37.867294 4,150 338 195 -1024
2020-08-07 13:45:00 GMT 55.848175 37.876949 4,275 338 197 -960
2020-08-07 13:44:49 GMT 55.848175 37.876949 4,375 338 198 -896
2020-08-07 13:44:39 GMT 55.839455 37.883434 4,550 338 203 -512
2020-08-07 13:44:31 GMT 55.832016 37.889015 4,625 338 212 -256
2020-08-07 13:44:28 GMT 55.830193 37.890388 4,625 338 212 -256
2020-08-07 13:44:19 GMT 55.821159 37.897167 4,650 338 219 -768
2020-08-07 13:44:10 GMT 55.812881 37.903332 4,775 338 225 -256
2020-08-07 13:44:04 GMT 55.807892 37.907078 4,800 338 229 -192
2020-08-07 13:44:00 GMT 55.797455 37.914902 4,825 338 239 -256
2020-08-07 13:43:54 GMT 55.797455 37.914902 4,825 338 239 -256
2020-08-07 13:43:49 GMT 55.792439 37.918625 4,850 338 242 -192
2020-08-07 13:43:46 GMT 55.788345 37.921642 4,875 338 246 -192
2020-08-07 13:43:41 GMT 55.782990 37.925720 4,875 338 251 -576
2020-08-07 13:43:35 GMT 55.771908 37.933990 4,975 338 259 -1024
2020-08-07 13:43:30 GMT 55.771908 37.933990 5,025 338 257 -1024
2020-08-07 13:43:17 GMT 55.757492 37.944778 5,250 338 262 -1088
2020-08-07 13:42:52 GMT 55.726959 37.965755 5,650 294 145 -1280
2020-08-07 13:42:37 GMT 55.713272 37.977989 5,825 337 266 -1536
2020-08-07 13:42:32 GMT 55.707481 37.982395 6,125 337 266 -1472
2020-08-07 13:42:24 GMT 55.697113 37.990307 6,350 337 267 -1472
2020-08-07 13:42:11 GMT 55.679077 38.003372 6,850 338 260 -1536
2020-08-07 13:42:07 GMT 55.679077 38.003372 6,750 342 286 -1472
2020-08-07 13:41:55 GMT 55.654541 38.018688 7,050 341 271 -1472
2020-08-07 13:41:45 GMT 55.651989 38.020248 7,300 341 272 -1536
2020-08-07 13:41:40 GMT 55.646851 38.023514 7,550 341 273 -1472
2020-08-07 13:41:35 GMT 55.640259 38.027630 7,575 341 275 -1024
2020-08-07 13:41:31 GMT 55.634811 38.031090 7,650 341 276 -1088
2020-08-07 13:41:24 GMT 55.627350 38.035751 7,750 341 276 -960
2020-08-07 13:41:13 GMT 55.613632 38.044369 7,925 341 278 -1024
2020-08-07 13:41:05 GMT 55.582069 38.064110 8,075 341 289 -1088
2020-08-07 13:40:47 GMT 55.582069 38.064110 8,325 341 290 -1664
2020-08-07 13:40:43 GMT 55.576763 38.067455 8,450 341 294 -1536
2020-08-07 13:40:35 GMT 55.565823 38.074409 8,500 341 294 -1344
2020-08-07 13:40:31 GMT 55.561398 38.077240 8,725 340 298 -1536
2020-08-07 13:40:28 GMT 55.556976 38.080158 8,825 340 298 -1536
2020-08-07 13:40:23 GMT 55.551590 38.083607 8,925 340 298 -1472
2020-08-07 13:40:18 GMT 55.544685 38.088055 9,050 341 299 -1472
2020-08-07 13:40:12 GMT 55.535843 38.093678 9,225 340 300 -1408
2020-08-07 13:40:09 GMT 55.532536 38.095779 9,425 340 300 -1280
2020-08-07 13:40:04 GMT 55.525414 38.100327 9,475 341 301 -960
2020-08-07 13:40:01 GMT 55.521744 38.102669 9,450 341 301 -960
2020-08-07 13:39:58 GMT 55.518356 38.104916 9,500 341 302 -1024
2020-08-07 13:39:53 GMT 55.511635 38.109169 9,600 341 303 -960
2020-08-07 13:39:49 GMT 55.504837 38.113461 9,600 341 303 -960
2020-08-07 13:39:44 GMT 55.499039 38.117149 9,750 341 302 -1088
2020-08-07 13:39:41 GMT 55.495926 38.119144 9,775 341 302 -1024
2020-08-07 13:39:38 GMT 55.491756 38.121784 9,825 341 303 -1088
2020-08-07 13:39:33 GMT 55.485146 38.125992 9,925 341 302 -832
2020-08-07 13:39:30 GMT 55.482075 38.127968 9,950 341 302 -640
2020-08-07 13:39:27 GMT 55.478210 38.130367 10,000 341 302 -256
2020-08-07 13:39:24 GMT 55.472111 38.134315 10,000 341 301 64
2020-08-07 13:39:21 GMT 55.468899 38.136292 10,000 341 301 64
2020-08-07 13:39:17 GMT 55.464619 38.139038 10,000 341 300 0
2020-08-07 13:39:14 GMT 55.458611 38.142815 10,000 341 302 0
2020-08-07 13:39:11 GMT 55.457474 38.143616 10,000 341 302 0
2020-08-07 13:39:08 GMT 55.451908 38.147106 10,000 341 302 -64
2020-08-07 13:39:02 GMT 55.444973 38.151569 10,000 341 303 0
2020-08-07 13:38:57 GMT 55.438293 38.155842 10,000 341 303 0
2020-08-07 13:38:50 GMT 55.428680 38.161900 10,000 341 302 64
2020-08-07 13:38:46 GMT 55.423508 38.165211 10,000 341 302 64
2020-08-07 13:38:40 GMT 55.414898 38.170750 10,000 341 303 0
2020-08-07 13:38:37 GMT 55.411011 38.173210 10,000 341 303 -64
2020-08-07 13:38:32 GMT 55.404984 38.177074 10,000 341 303 0
2020-08-07 13:38:29 GMT 55.401772 38.179153 10,000 341 303 0
2020-08-07 13:38:26 GMT 55.397766 38.181652 10,000 341 303 0
2020-08-07 13:38:19 GMT 55.388130 38.187813 10,000 340 302 0
2020-08-07 13:38:16 GMT 55.384003 38.190495 10,000 340 301 0
2020-08-07 13:38:12 GMT 55.378098 38.194294 10,000 340 301 0
2020-08-07 13:38:09 GMT 55.375214 38.196152 10,000 340 301 0
2020-08-07 13:38:06 GMT 55.370117 38.199379 10,000 340 302 0
2020-08-07 13:37:58 GMT 55.360703 38.205521 10,000 340 302 0
2020-08-07 13:37:54 GMT 55.355759 38.208672 10,000 340 302 0
2020-08-07 13:37:49 GMT 55.347771 38.213779 10,000 340 302 0
2020-08-07 13:37:44 GMT 55.342438 38.217155 10,000 340 302 0
2020-08-07 13:37:39 GMT 55.335663 38.221516 10,000 340 301 0
2020-08-07 13:37:36 GMT 55.328033 38.226513 10,000 340 301 0
2020-08-07 13:37:29 GMT 55.323380 38.229507 10,000 340 301 0
2020-08-07 13:37:26 GMT 55.318634 38.232582 10,000 340 301 -64
2020-08-07 13:37:20 GMT 55.310528 38.237831 10,000 340 301 0
2020-08-07 13:37:16 GMT 55.298126 38.245831 10,000 340 301 0
2020-08-07 13:37:10 GMT 55.293724 38.248734 10,000 340 301 0
2020-08-07 13:37:07 GMT 55.289154 38.251648 10,000 340 301 0
2020-08-07 13:37:03 GMT 55.289154 38.251648 10,000 340 301 0
2020-08-07 13:36:58 GMT 55.280960 38.256981 10,000 340 301 0
2020-08-07 13:36:55 GMT 55.278130 38.258804 10,000 340 301 0
2020-08-07 13:36:52 GMT 55.274033 38.261471 10,000 340 301 0
2020-08-07 13:36:48 GMT 55.270020 38.264088 10,000 340 302 0
2020-08-07 13:36:44 GMT 55.264210 38.267796 10,000 340 302 0
2020-08-07 13:36:40 GMT 55.257202 38.272327 10,000 340 302 0
2020-08-07 13:36:34 GMT 55.251205 38.276207 10,000 340 302 0
2020-08-07 13:36:28 GMT 55.243446 38.281197 10,000 340 302 0
2020-08-07 13:36:25 GMT 55.238113 38.284607 10,000 340 302 0
2020-08-07 13:36:19 GMT 55.231483 38.288853 10,000 340 301 0
2020-08-07 13:36:16 GMT 55.227665 38.291348 10,000 340 301 0
2020-08-07 13:36:13 GMT 55.223896 38.293762 10,000 340 301 0
2020-08-07 13:36:07 GMT 55.213932 38.300087 10,000 340 301 0
2020-08-07 13:35:58 GMT 55.197876 38.310455 10,000 340 301 0
2020-08-07 13:35:53 GMT 55.197876 38.310455 10,000 340 301 0
2020-08-07 13:35:47 GMT 55.189541 38.315819 10,000 340 301 0
2020-08-07 13:35:44 GMT 55.183674 38.319565 10,000 340 301 0
2020-08-07 13:35:41 GMT 55.181030 38.321281 10,000 340 301 0
2020-08-07 13:35:37 GMT 55.176365 38.324306 10,000 340 301 0
2020-08-07 13:35:34 GMT 55.171738 38.327339 10,000 340 299 0
2020-08-07 13:35:31 GMT 55.167706 38.329967 10,000 340 299 0
2020-08-07 13:35:26 GMT 55.162678 38.333298 10,000 340 299 0
2020-08-07 13:35:20 GMT 55.153976 38.338974 10,000 340 299 0
2020-08-07 13:35:17 GMT 55.149551 38.341869 10,000 340 299 -64
2020-08-07 13:35:09 GMT 55.140659 38.347694 10,000 340 299 0
2020-08-07 13:35:06 GMT 55.135986 38.350765 10,000 340 299 0
2020-08-07 13:35:00 GMT 55.122665 38.359409 10,000 340 299 0
2020-08-07 13:34:55 GMT 55.122665 38.359409 10,000 340 300 0
2020-08-07 13:34:48 GMT 55.111938 38.366505 10,000 340 299 0
2020-08-07 13:34:45 GMT 55.109207 38.368217 10,000 340 299 0
2020-08-07 13:34:39 GMT 55.100437 38.373997 10,000 340 301 0
2020-08-07 13:34:36 GMT 55.096294 38.376743 10,000 340 301 0
2020-08-07 13:34:27 GMT 55.081970 38.386070 10,000 340 302 0
2020-08-07 13:34:18 GMT 55.073532 38.391556 10,000 340 302 0
2020-08-07 13:34:15 GMT 55.069576 38.394138 10,000 340 302 0
2020-08-07 13:34:11 GMT 55.064301 38.397621 10,000 340 302 0
2020-08-07 13:34:06 GMT 55.057938 38.401711 10,000 340 300 0
2020-08-07 13:34:00 GMT 55.048737 38.407719 10,000 340 299 0
2020-08-07 13:33:57 GMT 55.045258 38.409901 10,000 340 300 0
2020-08-07 13:33:54 GMT 55.041084 38.412613 10,000 340 299 0
2020-08-07 13:33:47 GMT 55.032990 38.417896 10,000 340 299 0
2020-08-07 13:33:44 GMT 55.029739 38.419998 10,000 340 299 0
2020-08-07 13:33:36 GMT 55.018982 38.427025 10,000 340 299 0
2020-08-07 13:33:33 GMT 55.015594 38.429207 10,000 340 299 0
2020-08-07 13:33:30 GMT 55.004913 38.436169 10,000 340 299 0
2020-08-07 13:33:25 GMT 55.004913 38.436169 10,000 340 299 0
2020-08-07 13:33:20 GMT 54.998257 38.440495 10,000 340 299 -64
2020-08-07 13:33:15 GMT 54.992020 38.444492 10,000 340 299 0
2020-08-07 13:33:12 GMT 54.987179 38.447655 10,000 340 299 0
2020-08-07 13:33:06 GMT 54.979076 38.452896 10,000 340 298 0
2020-08-07 13:32:59 GMT 54.971741 38.457642 10,000 340 298 0
2020-08-07 13:32:55 GMT 54.965607 38.461601 10,000 340 297 0
2020-08-07 13:32:43 GMT 54.950123 38.471622 10,000 340 297 0
2020-08-07 13:32:35 GMT 54.939926 38.478199 10,000 340 297 0
2020-08-07 13:32:32 GMT 54.936035 38.480743 10,000 340 297 0
2020-08-07 13:32:22 GMT 54.922050 38.489769 10,000 340 297 0
2020-08-07 13:32:19 GMT 54.920326 38.490932 10,000 340 297 0
2020-08-07 13:32:14 GMT 54.913055 38.495609 10,000 340 297 0
2020-08-07 13:32:11 GMT 54.909855 38.497677 10,000 340 297 0
2020-08-07 13:32:01 GMT 54.895657 38.506828 10,000 340 298 0
2020-08-07 13:31:53 GMT 54.886826 38.512573 10,000 340 297 0
2020-08-07 13:31:50 GMT 54.882713 38.515236 10,000 340 297 0
2020-08-07 13:31:44 GMT 54.869064 38.523964 10,000 340 295 0
2020-08-07 13:31:34 GMT 54.861191 38.529053 10,000 340 296 0
2020-08-07 13:31:30 GMT 54.856155 38.532364 10,000 340 296 0
2020-08-07 13:31:24 GMT 54.847778 38.537697 10,000 340 296 0
2020-08-07 13:31:20 GMT 54.841980 38.541454 10,000 340 296 -64
2020-08-07 13:31:13 GMT 54.830391 38.548862 10,000 340 296 0
2020-08-07 13:31:10 GMT 54.830391 38.548862 10,000 340 296 0
2020-08-07 13:31:02 GMT 54.821266 38.554771 10,000 340 296 0
2020-08-07 13:30:59 GMT 54.817402 38.557266 10,000 340 296 0
2020-08-07 13:30:53 GMT 54.808651 38.562843 10,000 340 296 0
2020-08-07 13:30:50 GMT 54.804016 38.565807 10,000 340 295 0
2020-08-07 13:30:42 GMT 54.795521 38.571335 10,000 340 296 0
2020-08-07 13:30:39 GMT 54.790833 38.574291 10,000 340 296 0
2020-08-07 13:30:33 GMT 54.781696 38.580238 10,000 340 295 0
2020-08-07 13:30:28 GMT 54.777512 38.582935 10,000 340 295 0
2020-08-07 13:30:22 GMT 54.769547 38.588024 10,000 340 295 0
2020-08-07 13:30:18 GMT 54.764751 38.591061 10,000 340 295 0
2020-08-07 13:30:12 GMT 54.756638 38.596344 10,000 340 295 0
2020-08-07 13:30:07 GMT 54.748764 38.601353 10,000 340 295 0
2020-08-07 13:29:58 GMT 54.738586 38.607956 10,000 340 296 0
2020-08-07 13:29:47 GMT 54.724670 38.616859 10,000 340 296 0
2020-08-07 13:29:42 GMT 54.716709 38.621937 10,000 340 296 0
2020-08-07 13:29:37 GMT 54.712280 38.624779 10,000 340 296 0
2020-08-07 13:29:28 GMT 54.698555 38.633591 10,000 340 295 0
2020-08-07 13:29:19 GMT 54.687286 38.640747 10,000 340 295 0
2020-08-07 13:29:06 GMT 54.672043 38.650307 10,000 341 294 64
2020-08-07 13:28:57 GMT 54.659451 38.658058 10,000 341 295 0
2020-08-07 13:28:46 GMT 54.646603 38.665634 10,000 343 296 0
2020-08-07 13:28:36 GMT 54.633087 38.673004 10,000 343 296 -64
2020-08-07 13:28:25 GMT 54.619087 38.680531 10,000 343 295 0
2020-08-07 13:28:14 GMT 54.603424 38.688999 10,000 343 295 0
2020-08-07 13:28:04 GMT 54.591019 38.695679 10,000 343 295 0
2020-08-07 13:27:54 GMT 54.579193 38.702003 10,000 343 295 0
2020-08-07 13:27:50 GMT 54.572617 38.705563 10,000 343 295 0
2020-08-07 13:27:44 GMT 54.566071 38.709114 10,000 343 295 0
2020-08-07 13:27:39 GMT 54.558517 38.713154 10,000 343 295 0
2020-08-07 13:27:34 GMT 54.552471 38.716404 10,000 343 294 0
2020-08-07 13:27:31 GMT 54.546513 38.719566 10,000 343 294 64
2020-08-07 13:27:24 GMT 54.539299 38.723476 10,000 343 294 64
2020-08-07 13:27:20 GMT 54.523796 38.731716 10,000 343 295 0
2020-08-07 13:27:12 GMT 54.523796 38.731716 10,000 343 295 0
2020-08-07 13:27:05 GMT 54.513973 38.736961 10,000 343 295 64
2020-08-07 13:26:53 GMT 54.498798 38.745033 10,000 343 295 128
2020-08-07 13:26:47 GMT 54.490860 38.749344 10,000 343 295 64
2020-08-07 13:26:43 GMT 54.485668 38.752110 10,000 343 295 -64
2020-08-07 13:26:38 GMT 54.479370 38.755402 10,000 343 295 -64
2020-08-07 13:26:32 GMT 54.471405 38.759686 10,000 343 294 -128
2020-08-07 13:26:27 GMT 54.465408 38.762917 10,000 343 293 -64
2020-08-07 13:26:22 GMT 54.458771 38.766472 10,025 343 291 -64
2020-08-07 13:26:13 GMT 54.445679 38.773499 10,000 343 283 64
2020-08-07 13:26:06 GMT 54.439304 38.776913 10,000 343 282 0
2020-08-07 13:26:02 GMT 54.433300 38.780155 10,000 343 281 0
2020-08-07 13:25:52 GMT 54.420273 38.787151 10,000 343 282 0
2020-08-07 13:25:41 GMT 54.407833 38.793972 10,000 343 283 0
2020-08-07 13:25:33 GMT 54.396664 38.799965 10,000 343 284 0
2020-08-07 13:25:29 GMT 54.393124 38.801880 10,000 343 283 0
2020-08-07 13:25:25 GMT 54.387863 38.804680 10,000 343 283 0
2020-08-07 13:25:22 GMT 54.383816 38.806873 10,000 343 283 0
2020-08-07 13:25:11 GMT 54.370731 38.813950 10,000 343 284 64
2020-08-07 13:25:01 GMT 54.357147 38.821239 10,000 343 284 -64
2020-08-07 13:24:51 GMT 54.345016 38.827785 10,000 343 284 0
2020-08-07 13:24:15 GMT 54.298763 38.852901 10,000 343 282 0
2020-08-07 13:23:42 GMT 54.259277 38.874493 10,000 343 282 0
2020-08-07 13:23:38 GMT 54.232040 38.889324 10,000 343 283 0
2020-08-07 13:23:20 GMT 54.232040 38.889324 10,000 343 283 0
2020-08-07 13:23:03 GMT 54.210938 38.900940 10,000 342 283 0
2020-08-07 13:22:53 GMT 54.198860 38.907677 10,000 342 282 0
2020-08-07 13:22:41 GMT 54.183498 38.916321 10,000 342 282 0
2020-08-07 13:22:32 GMT 54.172623 38.922443 10,000 342 283 0
2020-08-07 13:22:22 GMT 54.158981 38.930054 10,000 342 283 64
2020-08-07 13:22:09 GMT 54.144333 38.938293 10,000 342 283 -64
2020-08-07 13:22:01 GMT 54.134155 38.944031 10,000 342 283 0
2020-08-07 13:21:50 GMT 54.119862 38.952026 10,000 342 283 -64
2020-08-07 13:21:42 GMT 54.109497 38.957912 10,000 342 283 0
2020-08-07 13:21:30 GMT 54.096085 38.965523 10,000 342 281 0
2020-08-07 13:21:20 GMT 54.083450 38.972664 10,000 342 281 0
2020-08-07 13:21:09 GMT 54.070004 38.980381 10,000 342 282 -64
2020-08-07 13:21:01 GMT 54.058182 38.987087 10,000 342 283 0
2020-08-07 13:20:50 GMT 54.045456 38.994244 10,000 342 284 0
2020-08-07 13:20:17 GMT 54.002972 39.018105 10,025 342 284 0
2020-08-07 13:20:08 GMT 53.994217 39.023033 10,025 342 283 64
2020-08-07 13:19:58 GMT 53.980774 39.030422 10,000 343 283 64
2020-08-07 13:19:48 GMT 53.967915 39.037495 10,000 342 283 0
2020-08-07 13:19:16 GMT 53.928635 39.059299 10,025 343 281 -960
2020-08-07 13:19:07 GMT 53.916428 39.065929 10,150 343 281 -1024
2020-08-07 13:18:26 GMT 53.866837 39.093044 10,800 342 285 -1024
2020-08-07 13:18:04 GMT 53.839233 39.108112 11,175 343 287 -1024
2020-08-07 13:17:23 GMT 53.787338 39.135887 11,850 343 289 -960
2020-08-07 13:17:11 GMT 53.770908 39.144611 12,075 343 287 -960
2020-08-07 13:17:03 GMT 53.760666 39.150105 12,200 343 288 -896
2020-08-07 13:16:54 GMT 53.749374 39.156136 12,325 343 290 -896
2020-08-07 13:16:43 GMT 53.734318 39.164322 12,525 343 293 -896
2020-08-07 13:12:26 GMT 53.385452 39.372646 18,725 341 361 -4608
2020-08-07 13:12:16 GMT 53.369160 39.382191 19,550 342 370 -5760
2020-08-07 13:12:06 GMT 53.353008 39.391155 20,525 342 374 -6080
2020-08-07 13:11:56 GMT 53.336060 39.400188 21,375 343 377 -6464
2020-08-07 13:11:46 GMT 53.319210 39.408768 22,950 344 383 -5504
2020-08-07 13:11:35 GMT 53.301498 39.417610 23,725 344 392 -5312
2020-08-07 13:11:25 GMT 53.283924 39.426296 24,700 344 394 -5312
2020-08-07 13:11:15 GMT 53.265701 39.435268 25,675 344 400 -6592
2020-08-07 13:11:05 GMT 53.247986 39.444069 26,575 344 404 -6400
2020-08-07 13:10:56 GMT 53.232624 39.451580 27,575 345 413 -4800
2020-08-07 13:10:53 GMT 53.226807 39.454247 27,850 345 416 -4160
2020-08-07 13:10:47 GMT 53.213837 39.460300 28,375 345 427 -5952
2020-08-07 13:10:34 GMT 53.190075 39.471291 29,625 345 423 -5184
2020-08-07 13:10:26 GMT 53.174850 39.478401 30,350 345 422 -5184
2020-08-07 13:10:23 GMT 53.170849 39.480259 30,550 345 422 -4544
2020-08-07 13:10:16 GMT 53.155952 39.487206 31,575 345 421 -5120
2020-08-07 13:10:06 GMT 53.131851 39.498440 32,275 345 419 -4928
2020-08-07 13:09:56 GMT 53.118164 39.504719 32,775 345 420 -3712
2020-08-07 13:09:53 GMT 53.113678 39.506756 32,925 345 421 -3072
2020-08-07 13:09:45 GMT 53.093811 39.515686 33,450 345 426 -2688
2020-08-07 13:09:35 GMT 53.074768 39.524231 33,850 345 428 -960
2020-08-07 13:09:22 GMT 53.055496 39.532928 33,925 345 438 -640
2020-08-07 13:09:12 GMT 53.035126 39.542160 34,025 345 443 0
2020-08-07 13:09:05 GMT 53.018345 39.549839 34,025 345 443 -64
2020-08-07 13:09:01 GMT 53.013317 39.552116 34,025 345 443 0
2020-08-07 13:08:54 GMT 52.998978 39.558708 34,025 345 443 0
2020-08-07 13:08:51 GMT 52.993950 39.560982 34,025 345 443 0
2020-08-07 13:08:44 GMT 52.979187 39.567795 34,025 345 444 0
2020-08-07 13:08:41 GMT 52.974304 39.570007 34,025 345 444 0
2020-08-07 13:08:34 GMT 52.959454 39.576912 34,025 345 444 0
2020-08-07 13:08:21 GMT 52.934223 39.588608 34,025 345 444 0
2020-08-07 13:08:14 GMT 52.919083 39.595642 34,050 345 443 0
2020-08-07 13:08:11 GMT 52.913910 39.598007 34,050 345 443 0
2020-08-07 13:08:03 GMT 52.893818 39.607437 34,025 345 444 64
2020-08-07 13:07:53 GMT 52.878361 39.614658 34,025 345 445 0
2020-08-07 13:07:49 GMT 52.872311 39.617561 34,025 345 445 0
2020-08-07 13:07:40 GMT 52.853119 39.626541 34,025 344 445 0
2020-08-07 13:07:33 GMT 52.838654 39.633415 34,025 344 445 0
2020-08-07 13:07:29 GMT 52.832413 39.636318 34,025 344 445 -64
2020-08-07 13:07:23 GMT 52.810776 39.646683 34,025 344 445 0
2020-08-07 13:07:12 GMT 52.797638 39.652939 34,050 344 445 0
2020-08-07 13:07:09 GMT 52.791775 39.655701 34,025 344 445 0
2020-08-07 13:07:01 GMT 52.775482 39.663548 34,025 344 445 64
2020-08-07 13:06:58 GMT 52.771336 39.665508 34,025 344 445 64
2020-08-07 13:06:52 GMT 52.758022 39.671867 34,025 344 446 64
2020-08-07 13:06:48 GMT 52.751678 39.674911 34,025 344 446 64
2020-08-07 13:06:41 GMT 52.737400 39.681831 34,025 344 447 64
2020-08-07 13:06:38 GMT 52.731861 39.684502 34,025 344 447 0
2020-08-07 13:06:31 GMT 52.716919 39.691799 34,025 344 447 0
2020-08-07 13:06:28 GMT 52.710800 39.694748 34,025 344 447 0
2020-08-07 13:06:22 GMT 52.696793 39.701538 34,025 344 447 0
2020-08-07 13:06:18 GMT 52.691128 39.704353 34,000 344 447 0
2020-08-07 13:06:11 GMT 52.677208 39.711102 34,000 344 448 64
2020-08-07 13:06:07 GMT 52.670040 39.714634 34,000 344 448 0
2020-08-07 13:05:57 GMT 52.650162 39.724445 34,000 344 448 0
2020-08-07 13:05:50 GMT 52.636139 39.731369 34,000 344 448 0
2020-08-07 13:05:46 GMT 52.628654 39.735039 34,000 344 449 0
2020-08-07 13:05:40 GMT 52.616364 39.741081 34,000 344 450 -64
2020-08-07 13:05:35 GMT 52.606075 39.746258 34,000 344 450 0
2020-08-07 13:05:31 GMT 52.596069 39.751125 34,000 344 450 64
2020-08-07 13:05:27 GMT 52.589355 39.754486 34,000 344 450 0
2020-08-07 13:05:19 GMT 52.574112 39.762039 34,000 344 450 0
2020-08-07 13:05:16 GMT 52.568573 39.764709 34,000 344 450 0
2020-08-07 13:05:08 GMT 52.552368 39.772720 34,000 344 451 0
2020-08-07 13:05:05 GMT 52.546722 39.775532 34,000 344 451 -64
2020-08-07 13:04:59 GMT 52.534946 39.781338 34,000 344 451 64
2020-08-07 13:04:55 GMT 52.526844 39.785339 34,000 344 451 0
2020-08-07 13:04:49 GMT 52.512085 39.792633 34,000 344 452 64
2020-08-07 13:04:45 GMT 52.505802 39.795696 34,000 344 452 0
2020-08-07 13:04:39 GMT 52.494396 39.801350 34,000 344 452 0
2020-08-07 13:04:35 GMT 52.486359 39.805374 34,000 344 452 0
2020-08-07 13:04:28 GMT 52.473358 39.811859 34,000 344 452 0
2020-08-07 13:04:25 GMT 52.466187 39.815472 34,000 343 452 -64
2020-08-07 13:04:18 GMT 52.452301 39.822464 34,025 343 452 -64
2020-08-07 13:04:14 GMT 52.445435 39.825974 34,025 343 452 -64
2020-08-07 13:04:08 GMT 52.431644 39.832973 34,025 343 451 64
2020-08-07 13:04:04 GMT 52.424835 39.836426 34,025 343 452 64
2020-08-07 13:03:59 GMT 52.413212 39.842232 34,000 343 452 64
2020-08-07 13:03:54 GMT 52.405159 39.846313 34,000 343 452 0
2020-08-07 13:03:48 GMT 52.392197 39.852829 34,000 343 452 64
2020-08-07 13:03:44 GMT 52.384048 39.857025 34,000 343 452 -64
2020-08-07 13:03:37 GMT 52.371689 39.863186 34,000 343 452 0
2020-08-07 13:03:34 GMT 52.364319 39.866943 34,000 343 452 0
2020-08-07 13:03:27 GMT 52.351181 39.873581 34,000 343 452 0
2020-08-07 13:03:23 GMT 52.343941 39.877155 34,000 343 452 0
2020-08-07 13:03:17 GMT 52.331360 39.883499 34,000 343 452 0
2020-08-07 13:03:13 GMT 52.323040 39.887669 34,000 343 452 0
2020-08-07 13:03:08 GMT 52.311447 39.893570 34,000 343 451 0
2020-08-07 13:03:03 GMT 52.302322 39.898106 34,000 343 451 0
2020-08-07 13:02:56 GMT 52.288685 39.904934 34,000 343 451 0
2020-08-07 13:02:52 GMT 52.281052 39.908829 34,000 343 451 0
2020-08-07 13:02:46 GMT 52.269836 39.914398 34,000 343 450 0
2020-08-07 13:02:42 GMT 52.261639 39.918510 34,000 343 450 0
2020-08-07 13:02:36 GMT 52.249924 39.924393 34,000 343 450 0
2020-08-07 13:02:32 GMT 52.240734 39.928947 34,000 343 450 0
2020-08-07 13:02:26 GMT 52.228409 39.935150 34,000 343 450 0
2020-08-07 13:02:22 GMT 52.220810 39.938965 34,000 343 450 0
2020-08-07 13:02:17 GMT 52.208801 39.944954 34,000 343 449 -64
2020-08-07 13:02:11 GMT 52.200699 39.948956 34,000 343 449 -64
2020-08-07 13:02:06 GMT 52.189808 39.954449 34,000 343 449 0
2020-08-07 13:02:00 GMT 52.177917 39.960327 34,000 343 450 64
2020-08-07 13:01:56 GMT 52.169220 39.964676 34,000 343 450 0
2020-08-07 13:01:50 GMT 52.158802 39.969830 34,000 343 450 0
2020-08-07 13:01:45 GMT 52.148746 39.974854 34,000 343 450 0
2020-08-07 13:01:40 GMT 52.138832 39.979797 34,000 344 451 64
2020-08-07 13:01:35 GMT 52.128479 39.984894 34,000 344 451 -64
2020-08-07 13:01:30 GMT 52.119141 39.989609 34,000 344 451 0
2020-08-07 13:01:26 GMT 52.107834 39.995193 34,000 344 451 0
2020-08-07 13:01:20 GMT 52.098984 39.999573 34,000 344 451 0
2020-08-07 13:01:15 GMT 52.087391 40.005379 34,000 344 451 64
2020-08-07 13:01:10 GMT 52.078720 40.009689 34,000 343 452 0
2020-08-07 13:01:04 GMT 52.066498 40.015793 34,000 343 452 0
2020-08-07 13:01:00 GMT 52.057800 40.020142 34,000 343 452 0
2020-08-07 13:00:54 GMT 52.046753 40.025627 34,000 343 452 -64
2020-08-07 13:00:50 GMT 52.037842 40.030060 34,000 343 452 0
2020-08-07 13:00:44 GMT 52.026443 40.035782 34,000 343 452 0
2020-08-07 13:00:39 GMT 52.016327 40.040817 34,000 343 451 0
2020-08-07 13:00:35 GMT 52.006950 40.045559 34,000 343 451 0
2020-08-07 13:00:28 GMT 51.995453 40.051422 34,000 343 451 0
2020-08-07 13:00:24 GMT 51.986095 40.056072 34,000 343 451 0
2020-08-07 13:00:19 GMT 51.976643 40.060860 34,000 343 451 0
2020-08-07 13:00:14 GMT 51.966064 40.066147 34,000 343 451 0
2020-08-07 13:00:09 GMT 51.955948 40.071259 34,000 343 451 0
2020-08-07 13:00:04 GMT 51.946014 40.076321 34,000 343 451 0
2020-08-07 12:59:58 GMT 51.935909 40.081341 34,000 343 451 0
2020-08-07 12:59:53 GMT 51.925110 40.086758 34,000 343 451 -64
2020-08-07 12:59:48 GMT 51.915619 40.091553 34,000 343 451 -64
2020-08-07 12:59:43 GMT 51.905136 40.096817 34,025 343 450 -64
2020-08-07 12:59:38 GMT 51.894791 40.102081 34,025 343 450 0
2020-08-07 12:59:33 GMT 51.884125 40.107372 34,025 343 450 64
2020-08-07 12:59:28 GMT 51.875015 40.111977 34,000 343 451 64
2020-08-07 12:59:23 GMT 51.864407 40.117340 34,000 343 451 64
2020-08-07 12:59:17 GMT 51.854279 40.122368 34,000 343 452 0
2020-08-07 12:59:12 GMT 51.844158 40.127487 34,000 343 453 -64
2020-08-07 12:59:07 GMT 51.833870 40.132675 34,000 343 453 -64
2020-08-07 12:59:03 GMT 51.824047 40.137558 34,000 343 453 -64
2020-08-07 12:58:57 GMT 51.813904 40.142632 34,025 343 452 -64
2020-08-07 12:58:51 GMT 51.802185 40.148422 34,025 343 451 0
2020-08-07 12:58:47 GMT 51.793369 40.152817 34,025 343 451 64
2020-08-07 12:58:42 GMT 51.783234 40.157848 34,025 343 450 0
2020-08-07 12:58:37 GMT 51.772980 40.162899 34,025 344 450 64
2020-08-07 12:58:31 GMT 51.761902 40.168316 34,000 344 450 64
2020-08-07 12:58:26 GMT 51.752541 40.172882 34,000 344 450 128
2020-08-07 12:58:21 GMT 51.741837 40.178070 34,000 344 450 64
2020-08-07 12:58:16 GMT 51.731644 40.182941 34,000 344 451 64
2020-08-07 12:58:12 GMT 51.722168 40.187393 33,975 344 450 64
2020-08-07 12:58:05 GMT 51.710403 40.192886 33,975 345 451 -64
2020-08-07 12:58:01 GMT 51.702164 40.196598 33,975 345 450 0
2020-08-07 12:57:55 GMT 51.690208 40.201874 34,000 346 448 -64
2020-08-07 12:57:51 GMT 51.681152 40.205730 34,000 346 445 -128
2020-08-07 12:57:45 GMT 51.670486 40.210258 34,000 346 442 -128
2020-08-07 12:57:41 GMT 51.660786 40.214386 34,025 346 439 -128
2020-08-07 12:57:35 GMT 51.650620 40.218719 34,025 346 436 -64
2020-08-07 12:57:30 GMT 51.641190 40.222729 34,025 346 433 64
2020-08-07 12:57:25 GMT 51.630157 40.227406 34,025 346 430 192
2020-08-07 12:57:20 GMT 51.621368 40.231117 34,000 346 429 128
2020-08-07 12:57:15 GMT 51.610977 40.235497 34,000 346 429 0
2020-08-07 12:57:10 GMT 51.602463 40.239136 34,000 346 429 0
2020-08-07 12:57:04 GMT 51.591656 40.243759 34,000 346 429 0
2020-08-07 12:57:00 GMT 51.582687 40.247520 34,000 346 429 64
2020-08-07 12:56:54 GMT 51.571426 40.252346 34,000 346 428 -64
2020-08-07 12:56:49 GMT 51.562794 40.255966 34,000 346 428 0
2020-08-07 12:56:44 GMT 51.552338 40.260441 34,000 346 428 0
2020-08-07 12:56:40 GMT 51.544033 40.263977 34,000 345 427 0
2020-08-07 12:56:33 GMT 51.532303 40.269089 34,000 345 427 0
2020-08-07 12:56:29 GMT 51.524368 40.272465 34,000 345 426 0
2020-08-07 12:56:23 GMT 51.512844 40.277481 34,000 345 427 0
2020-08-07 12:56:19 GMT 51.504776 40.281002 34,000 345 426 0
2020-08-07 12:56:13 GMT 51.493618 40.285950 34,000 345 426 0
2020-08-07 12:56:09 GMT 51.485100 40.289764 34,000 345 426 0
2020-08-07 12:56:03 GMT 51.474014 40.294735 34,000 345 426 0
2020-08-07 12:55:59 GMT 51.466526 40.298080 34,000 345 426 0
2020-08-07 12:55:53 GMT 51.455063 40.303196 34,000 345 426 0
2020-08-07 12:55:48 GMT 51.446640 40.306980 34,000 345 426 0
2020-08-07 12:55:42 GMT 51.435150 40.312103 34,000 345 426 0
2020-08-07 12:55:39 GMT 51.427467 40.315552 34,000 345 426 64
2020-08-07 12:55:31 GMT 51.414711 40.321274 34,000 345 426 64
2020-08-07 12:55:28 GMT 51.407684 40.324352 34,000 345 426 64
2020-08-07 12:55:22 GMT 51.396469 40.329399 34,000 345 426 0
2020-08-07 12:55:18 GMT 51.388367 40.332962 34,000 345 426 -64
2020-08-07 12:55:08 GMT 51.369556 40.341339 34,000 345 426 64
2020-08-07 12:55:00 GMT 51.349411 40.350334 34,000 345 426 64
2020-08-07 12:54:48 GMT 51.330452 40.358734 34,000 345 427 -64
2020-08-07 12:54:40 GMT 51.316719 40.364838 34,000 345 426 -64
2020-08-07 12:54:37 GMT 51.311089 40.367355 34,000 345 426 0
2020-08-07 12:54:30 GMT 51.297226 40.373493 34,000 345 425 -64
2020-08-07 12:54:27 GMT 51.292278 40.375671 34,000 345 425 0
2020-08-07 12:54:17 GMT 51.272915 40.384293 34,025 345 423 64
2020-08-07 12:54:09 GMT 51.258434 40.390701 34,000 345 423 0
2020-08-07 12:54:06 GMT 51.253418 40.392868 34,000 345 423 0
2020-08-07 12:53:57 GMT 51.234554 40.401230 34,000 345 422 0
2020-08-07 12:53:46 GMT 51.214817 40.410004 34,000 345 422 0
2020-08-07 12:53:36 GMT 51.196011 40.418320 34,000 345 423 0
2020-08-07 12:53:26 GMT 51.176468 40.426868 34,000 345 423 0
2020-08-07 12:53:18 GMT 51.162121 40.433273 34,000 345 423 0
2020-08-07 12:53:15 GMT 51.157185 40.435410 34,000 345 423 -64
2020-08-07 12:53:06 GMT 51.138191 40.443802 34,000 345 423 0
2020-08-07 12:52:55 GMT 51.118874 40.452271 34,000 345 422 64
2020-08-07 12:52:47 GMT 51.104416 40.458637 34,000 345 423 0
2020-08-07 12:52:44 GMT 51.098557 40.461235 34,000 345 423 0
2020-08-07 12:52:35 GMT 51.080933 40.468979 34,000 345 423 0
2020-08-07 12:52:27 GMT 51.065804 40.475540 34,025 345 423 0
2020-08-07 12:52:24 GMT 51.061195 40.477600 34,000 345 423 0
2020-08-07 12:52:15 GMT 51.041473 40.486252 34,000 345 423 64
2020-08-07 12:52:04 GMT 51.022568 40.494492 34,000 345 422 64
2020-08-07 12:51:56 GMT 51.007706 40.501022 34,000 345 422 -64
2020-08-07 12:51:53 GMT 51.002911 40.503082 34,000 345 422 -64
2020-08-07 12:51:44 GMT 50.984482 40.511120 34,000 345 422 0
2020-08-07 12:51:34 GMT 50.965950 40.519257 34,000 345 421 64
2020-08-07 12:51:24 GMT 50.946075 40.527897 34,000 345 421 0
2020-08-07 12:51:13 GMT 50.927490 40.535988 34,000 345 421 -64
2020-08-07 12:51:03 GMT 50.908539 40.544304 34,000 345 421 64
2020-08-07 12:50:53 GMT 50.889278 40.552673 34,000 345 422 0
2020-08-07 12:50:42 GMT 50.869720 40.561226 34,000 345 422 -64
2020-08-07 12:50:33 GMT 50.850540 40.569614 34,000 345 422 0
2020-08-07 12:50:22 GMT 50.831772 40.577930 34,000 345 422 0
2020-08-07 12:50:12 GMT 50.812134 40.586689 34,000 345 423 -64
2020-08-07 12:50:02 GMT 50.793137 40.595371 34,000 344 423 0
2020-08-07 12:49:51 GMT 50.773727 40.604431 34,000 344 422 0
2020-08-07 12:49:42 GMT 50.755161 40.613480 34,000 343 423 0
2020-08-07 12:49:31 GMT 50.736603 40.622986 34,000 342 423 -64
2020-08-07 12:49:20 GMT 50.715958 40.633751 34,000 342 423 -64
2020-08-07 12:49:11 GMT 50.698380 40.642807 34,000 342 423 64
2020-08-07 12:49:01 GMT 50.679745 40.652466 34,000 342 422 0
2020-08-07 12:48:51 GMT 50.660980 40.662136 34,000 342 423 64
2020-08-07 12:48:40 GMT 50.641758 40.672054 34,000 342 423 0
2020-08-07 12:48:30 GMT 50.622997 40.681778 34,000 342 423 -64
2020-08-07 12:48:19 GMT 50.603348 40.691914 34,000 342 421 -64
2020-08-07 12:48:09 GMT 50.584808 40.701454 34,025 342 420 -128
2020-08-07 12:48:00 GMT 50.566345 40.710953 34,050 342 419 0
2020-08-07 12:47:49 GMT 50.546467 40.721195 34,025 342 421 320
2020-08-07 12:47:39 GMT 50.528732 40.730293 33,975 342 426 128
2020-08-07 12:47:29 GMT 50.509140 40.740341 34,000 342 432 -192
2020-08-07 12:47:18 GMT 50.489391 40.750519 34,000 342 432 0
2020-08-07 12:47:09 GMT 50.469467 40.760689 34,000 342 431 0
2020-08-07 12:46:58 GMT 50.450958 40.770191 34,000 342 431 0
2020-08-07 12:46:48 GMT 50.431870 40.779949 34,000 342 431 -64
2020-08-07 12:46:38 GMT 50.412277 40.789997 34,000 342 431 64
2020-08-07 12:46:28 GMT 50.393635 40.799511 34,000 342 431 0
2020-08-07 12:46:18 GMT 50.374191 40.809441 34,000 342 431 -128
2020-08-07 12:46:07 GMT 50.354324 40.819557 34,025 342 431 0
2020-08-07 12:45:56 GMT 50.334793 40.829502 34,000 342 431 0
2020-08-07 12:45:47 GMT 50.316193 40.838928 34,000 342 431 0
2020-08-07 12:45:37 GMT 50.296829 40.848831 34,000 342 432 0
2020-08-07 12:45:32 GMT 50.288754 40.852882 34,000 342 432 0
2020-08-07 12:45:27 GMT 50.277023 40.858898 34,000 342 432 0
2020-08-07 12:45:20 GMT 50.265106 40.864910 34,000 342 432 -64
2020-08-07 12:45:15 GMT 50.256866 40.869141 34,000 342 432 0
2020-08-07 12:45:11 GMT 50.246246 40.874489 34,000 342 431 64
2020-08-07 12:45:06 GMT 50.238831 40.878246 34,000 343 431 64
2020-08-07 12:45:01 GMT 50.229172 40.883163 34,000 343 431 64
2020-08-07 12:44:56 GMT 50.219715 40.887920 34,000 343 431 64
2020-08-07 12:44:45 GMT 50.199829 40.897980 34,000 342 432 -64
2020-08-07 12:44:40 GMT 50.189575 40.903183 34,000 342 432 0
2020-08-07 12:44:36 GMT 50.180603 40.907738 34,000 342 432 0
2020-08-07 12:44:30 GMT 50.171024 40.912567 34,000 343 431 -64
2020-08-07 12:44:25 GMT 50.161652 40.917351 34,000 343 431 0
2020-08-07 12:44:20 GMT 50.151352 40.922482 34,000 343 431 64
2020-08-07 12:44:15 GMT 50.142517 40.926964 34,000 343 431 64
2020-08-07 12:44:10 GMT 50.132851 40.931866 34,000 343 431 0
2020-08-07 12:44:04 GMT 50.122559 40.937080 34,000 343 431 0
2020-08-07 12:44:01 GMT 50.114044 40.941368 34,000 343 431 -64
2020-08-07 12:43:54 GMT 50.103424 40.946693 34,000 343 431 0
2020-08-07 12:43:50 GMT 50.094303 40.951241 34,000 343 431 0
2020-08-07 12:43:44 GMT 50.083691 40.956661 34,000 343 431 0
2020-08-07 12:43:39 GMT 50.074009 40.961487 34,000 343 431 0
2020-08-07 12:43:34 GMT 50.054550 40.971283 34,000 342 430 0
2020-08-07 12:43:30 GMT 50.054550 40.971283 34,000 342 430 0
2020-08-07 12:43:22 GMT 50.042496 40.977341 34,000 343 429 0
2020-08-07 12:43:19 GMT 50.035927 40.980637 34,000 343 429 -64
2020-08-07 12:43:13 GMT 50.025742 40.985725 34,000 343 429 0
2020-08-07 12:43:09 GMT 50.017216 40.989990 34,000 343 429 64
2020-08-07 12:43:03 GMT 50.005947 40.995705 34,000 343 429 64
2020-08-07 12:42:58 GMT 49.997616 40.999863 34,000 343 430 0
2020-08-07 12:42:53 GMT 49.986073 41.005653 34,000 343 430 -192
2020-08-07 12:42:48 GMT 49.977493 41.009937 34,000 343 431 -128
2020-08-07 12:42:42 GMT 49.966507 41.015430 34,000 343 431 0
2020-08-07 12:42:38 GMT 49.958725 41.019337 34,000 343 431 -64
2020-08-07 12:42:32 GMT 49.948269 41.024582 34,025 343 431 0
2020-08-07 12:42:27 GMT 49.938496 41.029484 34,025 343 431 0
2020-08-07 12:42:21 GMT 49.927090 41.035198 34,025 343 431 64
2020-08-07 12:42:18 GMT 49.919678 41.038921 34,000 343 430 0
2020-08-07 12:42:10 GMT 49.904434 41.046513 34,000 343 430 0
2020-08-07 12:42:07 GMT 49.899574 41.048931 34,000 343 430 0
2020-08-07 12:42:00 GMT 49.887909 41.054752 34,000 343 430 0
2020-08-07 12:41:57 GMT 49.880676 41.058365 34,000 343 430 0
2020-08-07 12:41:51 GMT 49.869141 41.064148 34,000 343 430 64
2020-08-07 12:41:46 GMT 49.859619 41.068916 34,000 343 430 128
2020-08-07 12:41:40 GMT 49.848557 41.074390 34,000 343 430 0
2020-08-07 12:41:36 GMT 49.841766 41.077808 34,000 343 430 -64
2020-08-07 12:41:30 GMT 49.829956 41.083664 34,000 343 430 -64
2020-08-07 12:41:25 GMT 49.821304 41.087929 34,000 343 430 -64
2020-08-07 12:41:21 GMT 49.811554 41.092770 34,025 343 429 0
2020-08-07 12:41:15 GMT 49.802563 41.097256 34,000 343 429 0
2020-08-07 12:41:12 GMT 49.794743 41.101189 34,000 343 429 0
2020-08-07 12:41:09 GMT 49.790878 41.103046 34,000 343 429 0
2020-08-07 12:41:05 GMT 49.782776 41.107128 34,000 343 429 0
2020-08-07 12:40:59 GMT 49.753647 41.121536 34,025 343 432 -64
2020-08-07 12:40:50 GMT 49.753647 41.121536 34,000 343 429 -64
2020-08-07 12:40:40 GMT 49.736481 41.130066 34,000 343 429 0
2020-08-07 12:40:37 GMT 49.730942 41.132812 34,000 343 429 0
2020-08-07 12:40:31 GMT 49.717838 41.139271 34,000 343 430 0
2020-08-07 12:40:19 GMT 49.695648 41.150230 34,000 343 431 -128
2020-08-07 12:40:08 GMT 49.674728 41.160576 34,025 343 430 128
2020-08-07 12:39:59 GMT 49.657791 41.168953 34,000 343 430 64
2020-08-07 12:39:50 GMT 49.632923 41.181213 34,000 343 431 -64
2020-08-07 12:39:40 GMT 49.621078 41.187019 34,000 343 432 64
2020-08-07 12:39:36 GMT 49.612118 41.191456 34,000 343 432 64
2020-08-07 12:39:31 GMT 49.605469 41.194756 34,000 343 432 0
2020-08-07 12:39:28 GMT 49.587910 41.203407 34,000 343 432 64
2020-08-07 12:39:23 GMT 49.587910 41.203407 34,000 343 432 0
2020-08-07 12:39:18 GMT 49.580017 41.207260 34,000 343 432 0
2020-08-07 12:39:14 GMT 49.572315 41.211052 34,000 343 432 0
2020-08-07 12:39:09 GMT 49.562302 41.216003 34,000 343 431 -192
2020-08-07 12:39:05 GMT 49.554440 41.219887 34,000 343 431 -192
2020-08-07 12:39:01 GMT 49.548615 41.222729 34,025 343 431 -192
2020-08-07 12:38:57 GMT 49.540241 41.226791 34,025 343 431 -128
2020-08-07 12:38:51 GMT 49.527344 41.233173 34,050 343 430 0
2020-08-07 12:38:47 GMT 49.521423 41.236027 34,050 343 430 128
2020-08-07 12:38:43 GMT 49.514099 41.239639 34,050 343 430 256
2020-08-07 12:38:39 GMT 49.504490 41.244385 34,025 343 432 192
2020-08-07 12:38:36 GMT 49.501461 41.245869 34,025 343 433 256
2020-08-07 12:38:33 GMT 49.494991 41.249062 34,000 343 434 320
2020-08-07 12:38:30 GMT 49.489265 41.251881 33,975 343 436 128
2020-08-07 12:38:27 GMT 49.482609 41.255146 33,975 343 438 0
2020-08-07 12:38:24 GMT 49.476013 41.258362 33,975 343 441 -320
2020-08-07 12:38:20 GMT 49.469852 41.261383 33,975 343 444 -256
2020-08-07 12:38:16 GMT 49.461845 41.265316 34,000 343 444 -64
2020-08-07 12:38:11 GMT 49.449974 41.271107 34,000 343 444 -64
2020-08-07 12:38:06 GMT 49.442093 41.274982 34,000 343 444 0
2020-08-07 12:37:58 GMT 49.415634 41.287888 34,000 343 447 0
2020-08-07 12:37:53 GMT 49.415634 41.287888 34,000 343 447 -64
2020-08-07 12:37:48 GMT 49.395401 41.297817 34,000 343 447 0
2020-08-07 12:37:43 GMT 49.395401 41.297817 34,000 343 448 0
2020-08-07 12:37:40 GMT 49.389816 41.300495 34,000 343 448 0
2020-08-07 12:37:37 GMT 49.385918 41.302448 34,025 343 448 128
2020-08-07 12:37:34 GMT 49.380054 41.305267 34,000 343 448 128
2020-08-07 12:37:31 GMT 49.372837 41.308811 34,000 343 449 0
2020-08-07 12:37:24 GMT 49.360363 41.314880 34,000 343 449 0
2020-08-07 12:37:19 GMT 49.349281 41.320305 34,000 343 450 64
2020-08-07 12:37:15 GMT 49.341705 41.324017 34,000 343 450 64
2020-08-07 12:37:11 GMT 49.332943 41.328255 34,000 343 450 0
2020-08-07 12:37:07 GMT 49.325027 41.332085 34,000 343 449 -64
2020-08-07 12:37:00 GMT 49.312454 41.338173 34,000 343 449 0
2020-08-07 12:36:57 GMT 49.305176 41.341763 34,000 343 449 0
2020-08-07 12:36:54 GMT 49.301147 41.343735 34,000 343 449 -64
2020-08-07 12:36:51 GMT 49.287781 41.350216 34,000 343 448 0
2020-08-07 12:36:44 GMT 49.280895 41.353550 34,025 343 448 0
2020-08-07 12:36:39 GMT 49.271072 41.358315 34,000 343 448 64
2020-08-07 12:36:34 GMT 49.260506 41.363453 34,000 343 448 64
2020-08-07 12:36:28 GMT 49.247334 41.369816 34,000 343 448 -64
2020-08-07 12:36:23 GMT 49.240349 41.373211 34,000 343 447 0
2020-08-07 12:36:17 GMT 49.226990 41.379723 34,000 343 447 -64
2020-08-07 12:36:13 GMT 49.219913 41.383114 34,000 343 446 -64
2020-08-07 12:36:09 GMT 49.212791 41.386581 34,025 343 446 64
2020-08-07 12:36:06 GMT 49.203667 41.390991 34,000 343 446 128
2020-08-07 12:35:55 GMT 49.183960 41.400497 34,000 343 445 -64
2020-08-07 12:35:52 GMT 49.179153 41.402824 34,025 343 445 0
2020-08-07 12:35:45 GMT 49.164505 41.409866 34,000 343 445 0
2020-08-07 12:35:42 GMT 49.159676 41.412243 34,000 343 445 -64
2020-08-07 12:35:35 GMT 49.136864 41.423225 34,000 343 444 0
2020-08-07 12:35:26 GMT 49.126007 41.428455 34,000 343 444 128
2020-08-07 12:35:21 GMT 49.117081 41.432770 34,000 343 445 -64
2020-08-07 12:35:15 GMT 49.105774 41.438248 34,000 343 445 -64
2020-08-07 12:35:12 GMT 49.099548 41.441277 34,000 343 445 -64
2020-08-07 12:35:05 GMT 49.085403 41.448036 34,000 343 445 -64
2020-08-07 12:35:01 GMT 49.078396 41.451416 34,000 343 445 0
2020-08-07 12:34:58 GMT 49.070480 41.455219 34,000 343 444 0
2020-08-07 12:34:54 GMT 49.065353 41.457684 34,000 343 444 64
2020-08-07 12:34:51 GMT 49.058990 41.460781 34,000 343 445 64
2020-08-07 12:34:46 GMT 49.049858 41.465149 34,000 343 445 0
2020-08-07 12:34:41 GMT 49.038502 41.470642 34,000 343 445 -128
2020-08-07 12:34:36 GMT 49.029648 41.474937 34,000 343 445 64
2020-08-07 12:34:33 GMT 49.024017 41.477615 34,000 343 445 0
2020-08-07 12:34:30 GMT 49.017876 41.480545 34,000 343 445 0
2020-08-07 12:34:27 GMT 49.010239 41.484234 34,000 343 445 64
2020-08-07 12:34:21 GMT 48.998199 41.489941 34,000 343 445 0
2020-08-07 12:34:17 GMT 48.990505 41.493626 34,000 343 445 0
2020-08-07 12:34:13 GMT 48.983707 41.496880 34,000 343 445 -64
2020-08-07 12:34:10 GMT 48.977840 41.499699 34,000 343 445 -64
2020-08-07 12:34:07 GMT 48.972061 41.502476 34,000 343 445 64
2020-08-07 12:34:03 GMT 48.963875 41.506420 34,000 343 445 64
2020-08-07 12:34:00 GMT 48.958557 41.508953 34,000 343 445 -64
2020-08-07 12:33:56 GMT 48.950134 41.512966 34,000 343 444 0
2020-08-07 12:33:53 GMT 48.944138 41.515854 34,000 343 444 0
2020-08-07 12:33:49 GMT 48.937958 41.518814 34,000 343 444 64
2020-08-07 12:33:45 GMT 48.924408 41.525291 34,000 343 444 64
2020-08-07 12:33:39 GMT 48.917862 41.528461 34,000 343 444 64
2020-08-07 12:33:36 GMT 48.911682 41.531418 34,000 343 444 64
2020-08-07 12:33:32 GMT 48.902802 41.535622 34,000 343 444 0
2020-08-07 12:33:29 GMT 48.898773 41.537544 34,000 343 444 -64
2020-08-07 12:33:26 GMT 48.891720 41.540897 34,000 343 444 0
2020-08-07 12:33:20 GMT 48.879364 41.546841 34,000 343 444 0
2020-08-07 12:33:15 GMT 48.869019 41.551773 34,000 343 443 64
2020-08-07 12:33:09 GMT 48.858719 41.556629 34,000 343 443 0
2020-08-07 12:33:02 GMT 48.843025 41.564171 34,000 343 443 0
2020-08-07 12:32:59 GMT 48.838512 41.566265 34,000 343 442 0
2020-08-07 12:32:56 GMT 48.831940 41.569450 34,000 343 442 0
2020-08-07 12:32:50 GMT 48.818958 41.575588 34,000 343 442 0
2020-08-07 12:32:44 GMT 48.808685 41.580505 34,000 343 442 0
2020-08-07 12:32:41 GMT 48.803421 41.582970 34,000 343 442 0
2020-08-07 12:32:38 GMT 48.797516 41.585789 34,000 343 442 -64
2020-08-07 12:32:33 GMT 48.788326 41.590191 34,000 343 442 -64
2020-08-07 12:32:29 GMT 48.780487 41.593956 34,000 343 441 0
2020-08-07 12:32:22 GMT 48.766754 41.600437 34,000 343 440 64
2020-08-07 12:32:19 GMT 48.760860 41.603271 34,025 343 440 64
2020-08-07 12:32:14 GMT 48.745422 41.610577 34,000 343 440 0
2020-08-07 12:32:11 GMT 48.745422 41.610577 34,000 343 440 64
2020-08-07 12:32:08 GMT 48.740662 41.612831 34,025 343 440 0
2020-08-07 12:32:04 GMT 48.731907 41.617004 34,000 343 440 -64
2020-08-07 12:32:00 GMT 48.722626 41.621422 34,000 343 440 0
2020-08-07 12:31:57 GMT 48.718460 41.623394 34,000 343 440 64
2020-08-07 12:31:54 GMT 48.712418 41.626282 34,000 343 440 0
2020-08-07 12:31:47 GMT 48.699829 41.632198 34,000 343 440 0
2020-08-07 12:31:42 GMT 48.687790 41.637974 34,000 343 440 -128
2020-08-07 12:31:38 GMT 48.680923 41.641212 34,000 343 439 64
2020-08-07 12:31:32 GMT 48.660828 41.650719 34,000 343 440 64
2020-08-07 12:31:27 GMT 48.660828 41.650719 34,000 343 440 64
2020-08-07 12:31:23 GMT 48.640945 41.660156 34,000 343 441 0
2020-08-07 12:31:18 GMT 48.640945 41.660156 34,000 343 441 64
2020-08-07 12:31:10 GMT 48.627777 41.666355 34,000 343 441 -64
2020-08-07 12:31:07 GMT 48.621624 41.669262 34,000 343 441 -64
2020-08-07 12:31:01 GMT 48.603516 41.677792 34,025 343 440 -64
2020-08-07 12:30:58 GMT 48.598434 41.680225 34,025 343 440 0
2020-08-07 12:30:52 GMT 48.592712 41.682903 34,025 343 440 64
2020-08-07 12:30:49 GMT 48.588108 41.685093 34,025 343 440 192
2020-08-07 12:30:46 GMT 48.580627 41.688606 34,000 343 440 0
2020-08-07 12:30:43 GMT 48.573853 41.691776 34,000 343 440 0
2020-08-07 12:30:37 GMT 48.561722 41.697552 34,000 343 440 64
2020-08-07 12:30:30 GMT 48.548309 41.703892 34,000 343 440 0
2020-08-07 12:30:25 GMT 48.540203 41.707714 34,000 343 440 -64
2020-08-07 12:30:19 GMT 48.527309 41.713787 34,000 343 440 -64
2020-08-07 12:30:16 GMT 48.522793 41.715881 34,000 343 439 0
2020-08-07 12:30:09 GMT 48.509109 41.722317 34,000 343 439 0
2020-08-07 12:30:06 GMT 48.503220 41.725086 34,000 343 439 64
2020-08-07 12:29:59 GMT 48.488579 41.732002 34,000 343 439 128
2020-08-07 12:29:55 GMT 48.482944 41.734676 34,000 343 438 64
2020-08-07 12:29:49 GMT 48.468513 41.741398 34,000 343 437 -64
2020-08-07 12:29:45 GMT 48.460365 41.745155 34,000 343 437 -64
2020-08-07 12:29:38 GMT 48.441048 41.754192 34,000 343 437 0
2020-08-07 12:29:25 GMT 48.423916 41.762142 34,000 343 436 0
2020-08-07 12:29:17 GMT 48.408367 41.769299 34,000 344 435 64
2020-08-07 12:29:14 GMT 48.403576 41.771465 34,000 344 435 0
2020-08-07 12:29:05 GMT 48.383102 41.780724 34,000 344 436 -64
2020-08-07 12:28:57 GMT 48.369267 41.786934 34,025 344 435 0
2020-08-07 12:28:54 GMT 48.363785 41.789314 34,025 344 436 0
2020-08-07 12:28:47 GMT 48.349155 41.795677 34,000 345 435 128
2020-08-07 12:28:44 GMT 48.324463 41.805866 34,000 345 435 64
2020-08-07 12:28:34 GMT 48.324463 41.805866 34,000 346 437 -128
2020-08-07 12:28:25 GMT 48.309036 41.811710 34,000 347 437 -64
2020-08-07 12:28:21 GMT 48.300739 41.814613 34,025 348 437 64
2020-08-07 12:28:16 GMT 48.289333 41.818520 34,025 348 435 0
2020-08-07 12:28:12 GMT 48.280472 41.821499 34,000 348 435 64
2020-08-07 12:28:06 GMT 48.268665 41.825527 34,000 348 435 0
2020-08-07 12:28:02 GMT 48.261913 41.827843 34,000 348 435 0
2020-08-07 12:27:55 GMT 48.249065 41.832180 34,000 348 435 0
2020-08-07 12:27:51 GMT 48.241379 41.834740 34,000 348 435 128
2020-08-07 12:27:43 GMT 48.224907 41.840347 34,000 348 435 -64
2020-08-07 12:27:40 GMT 48.219833 41.842079 34,000 348 435 -128
2020-08-07 12:27:33 GMT 48.204239 41.847359 34,025 348 434 0
2020-08-07 12:27:30 GMT 48.200977 41.848442 34,025 348 434 0
2020-08-07 12:27:23 GMT 48.187088 41.853191 34,000 348 434 0
2020-08-07 12:27:20 GMT 48.180031 41.855598 34,000 348 434 0
2020-08-07 12:27:12 GMT 48.159714 41.862442 34,000 348 432 0
2020-08-07 12:27:04 GMT 48.147675 41.866493 34,000 348 432 0
2020-08-07 12:26:59 GMT 48.138840 41.869514 34,000 348 432 64
2020-08-07 12:26:50 GMT 48.120117 41.875832 34,000 348 431 64
2020-08-07 12:26:42 GMT 48.105267 41.880871 34,000 348 431 0
2020-08-07 12:26:39 GMT 48.099884 41.882629 34,000 348 431 0
2020-08-07 12:26:31 GMT 48.085052 41.887642 34,000 348 430 -64
2020-08-07 12:26:23 GMT 48.067245 41.893616 34,025 348 430 0
2020-08-07 12:26:19 GMT 48.060017 41.896080 34,000 348 430 0
2020-08-07 12:26:12 GMT 48.048065 41.900070 34,000 348 430 64
2020-08-07 12:26:08 GMT 48.039734 41.902885 34,000 348 430 64
2020-08-07 12:26:01 GMT 48.025040 41.907829 34,000 348 431 0
2020-08-07 12:25:58 GMT 48.020168 41.909462 34,000 348 431 64
2020-08-07 12:25:52 GMT 48.007694 41.913689 34,000 348 430 -128
2020-08-07 12:25:48 GMT 47.999771 41.916344 34,000 348 430 -64
2020-08-07 12:25:40 GMT 47.985348 41.921150 34,000 348 430 64
2020-08-07 12:25:37 GMT 47.979538 41.923141 34,000 348 429 64
2020-08-07 12:25:30 GMT 47.967865 41.927055 34,000 348 429 0
2020-08-07 12:25:27 GMT 47.960724 41.929394 34,000 348 429 0
2020-08-07 12:25:21 GMT 47.947178 41.933968 34,000 348 429 0
2020-08-07 12:25:16 GMT 47.940353 41.936256 34,000 348 429 0
2020-08-07 12:25:10 GMT 47.926971 41.940731 34,000 348 428 64
2020-08-07 12:25:07 GMT 47.919434 41.943260 34,000 348 428 64
2020-08-07 12:24:59 GMT 47.906342 41.947655 34,000 348 428 -64
2020-08-07 12:24:56 GMT 47.900620 41.949577 34,000 348 428 0
2020-08-07 12:24:48 GMT 47.885166 41.954746 34,000 348 428 0
2020-08-07 12:24:45 GMT 47.880524 41.956306 34,000 348 428 64
2020-08-07 12:24:39 GMT 47.867664 41.960659 34,000 348 428 64
2020-08-07 12:24:36 GMT 47.860336 41.963104 34,000 348 428 0
2020-08-07 12:24:28 GMT 47.844681 41.968323 34,000 348 428 -64
2020-08-07 12:24:25 GMT 47.841156 41.969490 34,000 348 428 0
2020-08-07 12:24:17 GMT 47.826828 41.974297 34,000 348 428 0
2020-08-07 12:24:14 GMT 47.820648 41.976357 34,000 348 428 0
2020-08-07 12:24:07 GMT 47.806355 41.981083 34,000 348 428 -64
2020-08-07 12:24:01 GMT 47.795517 41.984734 34,025 348 428 0
2020-08-07 12:23:55 GMT 47.781555 41.989334 34,000 348 428 0
2020-08-07 12:23:46 GMT 47.766319 41.994392 34,000 348 428 0
2020-08-07 12:23:43 GMT 47.760681 41.996269 34,000 348 428 0
2020-08-07 12:23:38 GMT 47.748772 42.000240 34,000 348 429 64
2020-08-07 12:23:33 GMT 47.740906 42.002861 34,000 348 429 0
2020-08-07 12:23:27 GMT 47.728565 42.006931 34,000 348 430 0
2020-08-07 12:23:24 GMT 47.721817 42.009182 34,000 348 430 0
2020-08-07 12:23:17 GMT 47.709045 42.013435 34,000 348 430 -64
2020-08-07 12:23:13 GMT 47.702217 42.015663 34,000 348 430 0
2020-08-07 12:23:07 GMT 47.689407 42.019958 34,000 348 431 64
2020-08-07 12:23:02 GMT 47.681442 42.022568 34,000 348 431 64
2020-08-07 12:22:56 GMT 47.668167 42.026962 34,000 348 431 0
2020-08-07 12:22:53 GMT 47.661209 42.029297 34,000 348 432 0
2020-08-07 12:22:46 GMT 47.649147 42.033268 34,000 348 432 0
2020-08-07 12:22:42 GMT 47.641296 42.035889 34,000 348 432 0
2020-08-07 12:22:36 GMT 47.628899 42.039959 34,000 348 432 -64
2020-08-07 12:22:32 GMT 47.621777 42.042282 34,000 348 431 0
2020-08-07 12:22:25 GMT 47.607670 42.047001 34,000 348 431 0
2020-08-07 12:22:20 GMT 47.598591 42.049961 34,000 348 431 0
2020-08-07 12:22:15 GMT 47.588631 42.053268 34,000 348 430 0
2020-08-07 12:22:12 GMT 47.581646 42.055595 34,000 348 430 0
2020-08-07 12:22:04 GMT 47.568611 42.059891 34,000 348 430 -64
2020-08-07 12:22:00 GMT 47.560513 42.062565 34,025 348 430 0
2020-08-07 12:21:55 GMT 47.548553 42.066513 34,000 348 429 64
2020-08-07 12:21:50 GMT 47.541092 42.068985 34,000 348 429 64
2020-08-07 12:21:44 GMT 47.528625 42.073059 34,000 348 428 0
2020-08-07 12:21:41 GMT 47.521866 42.075302 34,000 348 428 0
2020-08-07 12:21:34 GMT 47.509354 42.079468 34,000 348 428 0
2020-08-07 12:21:30 GMT 47.501450 42.082031 34,000 348 428 0
2020-08-07 12:21:24 GMT 47.488998 42.086151 34,000 348 428 0
2020-08-07 12:21:19 GMT 47.481419 42.088623 34,000 348 428 0
2020-08-07 12:21:13 GMT 47.468758 42.092850 34,000 348 428 64
2020-08-07 12:21:09 GMT 47.460052 42.095665 34,000 348 428 64
2020-08-07 12:21:02 GMT 47.448303 42.099541 34,000 348 428 -64
2020-08-07 12:20:59 GMT 47.441391 42.101807 34,000 348 428 -64
2020-08-07 12:20:53 GMT 47.428802 42.105927 34,000 348 428 -64
2020-08-07 12:20:48 GMT 47.421227 42.108482 34,000 348 428 -64
2020-08-07 12:20:43 GMT 47.409256 42.112381 34,025 348 428 0
2020-08-07 12:20:38 GMT 47.399441 42.115597 34,025 348 428 0
2020-08-07 12:20:32 GMT 47.390038 42.118694 34,025 348 429 64
2020-08-07 12:20:27 GMT 47.380463 42.121788 34,000 348 429 0
2020-08-07 12:20:22 GMT 47.368763 42.125668 34,000 348 429 -64
2020-08-07 12:20:18 GMT 47.362106 42.127850 34,000 348 430 0
2020-08-07 12:20:12 GMT 47.349243 42.132019 34,000 348 431 64
2020-08-07 12:20:07 GMT 47.341110 42.134682 34,000 348 431 0
2020-08-07 12:20:03 GMT 47.333267 42.137238 34,000 348 432 0
2020-08-07 12:20:00 GMT 47.328495 42.138836 34,000 348 432 64
2020-08-07 12:19:57 GMT 47.322350 42.140808 34,000 348 432 64
2020-08-07 12:19:53 GMT 47.312897 42.143898 34,000 348 433 0
2020-08-07 12:19:47 GMT 47.302002 42.147469 34,000 348 433 64
2020-08-07 12:19:41 GMT 47.289577 42.151512 34,000 348 433 -64
2020-08-07 12:19:36 GMT 47.281631 42.154129 34,000 348 433 64
2020-08-07 12:19:31 GMT 47.261398 42.160721 34,000 348 433 0
2020-08-07 12:19:27 GMT 47.261398 42.160721 34,000 348 433 0
2020-08-07 12:19:21 GMT 47.251328 42.163948 34,000 348 432 -64
2020-08-07 12:19:16 GMT 47.241585 42.167149 34,000 348 431 -64
2020-08-07 12:19:11 GMT 47.233112 42.169895 34,000 348 430 0
2020-08-07 12:19:05 GMT 47.221424 42.173698 34,000 348 429 64
2020-08-07 12:19:02 GMT 47.213139 42.176373 34,000 348 428 64
2020-08-07 12:18:56 GMT 47.200790 42.180428 34,000 348 428 -64
2020-08-07 12:18:51 GMT 47.193958 42.182640 34,000 348 427 -128
2020-08-07 12:18:45 GMT 47.181625 42.186653 34,000 348 427 -128
2020-08-07 12:18:41 GMT 47.174149 42.189079 34,025 348 427 0
2020-08-07 12:18:35 GMT 47.162292 42.192924 34,025 348 427 64
2020-08-07 12:18:31 GMT 47.154343 42.195526 34,000 348 427 64
2020-08-07 12:18:25 GMT 47.141960 42.199543 34,000 348 427 0
2020-08-07 12:18:20 GMT 47.133305 42.202358 34,000 348 428 0
2020-08-07 12:18:13 GMT 47.121368 42.206245 34,000 348 428 0
2020-08-07 12:18:09 GMT 47.113037 42.208992 34,000 348 428 0
2020-08-07 12:18:04 GMT 47.102253 42.212502 34,000 348 428 -64
2020-08-07 12:17:59 GMT 47.093811 42.215240 34,000 348 428 -64
2020-08-07 12:17:53 GMT 47.081352 42.219261 34,025 348 428 -64
2020-08-07 12:17:50 GMT 47.075485 42.221165 34,025 348 428 0
2020-08-07 12:17:43 GMT 47.062225 42.225471 34,025 348 428 0
2020-08-07 12:17:39 GMT 47.054214 42.228081 34,025 348 427 64
2020-08-07 12:17:33 GMT 47.042850 42.231728 34,025 348 427 64
2020-08-07 12:17:30 GMT 47.036224 42.233917 34,025 348 427 64
2020-08-07 12:17:22 GMT 47.021858 42.238560 34,000 348 427 192
2020-08-07 12:17:19 GMT 47.016266 42.240372 34,000 348 428 256
2020-08-07 12:17:13 GMT 47.002579 42.244766 33,975 348 428 448
2020-08-07 12:17:09 GMT 46.996906 42.246586 33,950 348 428 1152
2020-08-07 12:17:01 GMT 46.982391 42.251289 33,825 348 430 1664
2020-08-07 12:16:58 GMT 46.975662 42.253487 33,725 348 431 1472
2020-08-07 12:16:51 GMT 46.962875 42.257572 33,575 348 432 1216
2020-08-07 12:16:47 GMT 46.955063 42.260078 33,475 348 432 1280
2020-08-07 12:16:42 GMT 46.942017 42.264267 33,350 348 433 1344
2020-08-07 12:16:39 GMT 46.936066 42.266190 33,275 348 433 1344
2020-08-07 12:16:31 GMT 46.922562 42.270515 33,125 348 433 1280
2020-08-07 12:16:27 GMT 46.915764 42.272713 33,050 348 433 1152
2020-08-07 12:16:20 GMT 46.901566 42.277290 32,900 348 433 1024
2020-08-07 12:16:17 GMT 46.894817 42.279476 32,850 348 433 1024
2020-08-07 12:16:11 GMT 46.882370 42.283493 32,725 348 433 1088
2020-08-07 12:16:08 GMT 46.877151 42.285141 32,675 348 432 1152
2020-08-07 12:15:58 GMT 46.856735 42.291668 32,500 348 432 960
2020-08-07 12:15:47 GMT 46.837006 42.297966 32,325 348 430 1088
2020-08-07 12:15:40 GMT 46.821991 42.302788 32,175 348 429 1088
2020-08-07 12:15:37 GMT 46.816910 42.304398 32,125 348 429 1088
2020-08-07 12:15:29 GMT 46.801849 42.309242 32,000 348 428 1024
2020-08-07 12:15:26 GMT 46.796585 42.310963 31,950 348 428 1024
2020-08-07 12:15:16 GMT 46.777225 42.317139 31,775 348 427 1024
2020-08-07 12:15:07 GMT 46.757812 42.323318 31,650 348 426 1216
2020-08-07 12:14:59 GMT 46.742451 42.328262 31,425 348 424 1024
2020-08-07 12:14:55 GMT 46.736816 42.330048 31,400 348 424 1024
2020-08-07 12:14:46 GMT 46.718399 42.335949 31,225 348 424 960
2020-08-07 12:14:38 GMT 46.702087 42.341240 31,100 348 424 1024
2020-08-07 12:14:26 GMT 46.679443 42.348541 30,900 348 423 1024
2020-08-07 12:14:17 GMT 46.663544 42.353737 30,675 348 422 1024
2020-08-07 12:14:13 GMT 46.640781 42.361084 30,700 348 423 1024
2020-08-07 12:14:05 GMT 46.640781 42.361084 30,550 348 422 960
2020-08-07 12:13:57 GMT 46.623596 42.366631 30,400 348 419 960
2020-08-07 12:13:54 GMT 46.619926 42.367813 30,375 348 420 1024
2020-08-07 12:13:44 GMT 46.600929 42.373924 30,200 348 419 960
2020-08-07 12:13:35 GMT 46.583336 42.379623 30,050 348 419 1024
2020-08-07 12:13:24 GMT 46.563400 42.386059 29,875 348 417 1088
2020-08-07 12:13:14 GMT 46.543945 42.392288 29,675 348 417 1088
2020-08-07 12:13:02 GMT 46.512993 42.402283 29,400 348 418 1024
2020-08-07 12:12:54 GMT 46.504486 42.405018 29,325 348 418 960
2020-08-07 12:12:49 GMT 46.494324 42.408298 29,250 348 418 960
2020-08-07 12:12:44 GMT 46.487778 42.410374 29,200 348 418 1024
2020-08-07 12:12:36 GMT 46.472946 42.415131 29,050 348 416 1024
2020-08-07 12:12:33 GMT 46.467270 42.417007 29,000 348 414 1024
2020-08-07 12:12:27 GMT 46.454315 42.421162 28,875 348 413 1024
2020-08-07 12:12:24 GMT 46.449684 42.422676 28,850 348 412 1024
2020-08-07 12:12:15 GMT 46.434128 42.427658 28,700 348 412 1024
2020-08-07 12:12:11 GMT 46.426392 42.430138 28,625 348 411 960
2020-08-07 12:12:06 GMT 46.416046 42.433418 28,550 348 411 960
2020-08-07 12:12:02 GMT 46.407394 42.436234 28,475 348 411 960
2020-08-07 12:11:56 GMT 46.396683 42.439651 28,375 348 410 896
2020-08-07 12:11:51 GMT 46.389912 42.441833 28,325 348 409 1024
2020-08-07 12:11:45 GMT 46.378086 42.445610 28,200 348 409 1088
2020-08-07 12:11:42 GMT 46.372639 42.447327 28,150 348 409 1152
2020-08-07 12:11:32 GMT 46.353745 42.453384 28,000 348 408 64
2020-08-07 12:11:22 GMT 46.334793 42.459480 28,000 348 409 0
2020-08-07 12:11:11 GMT 46.315384 42.465641 28,000 348 409 0
2020-08-07 12:11:00 GMT 46.295746 42.471939 28,000 348 409 0
2020-08-07 12:10:51 GMT 46.278122 42.477566 28,000 348 409 0
2020-08-07 12:10:39 GMT 46.254955 42.484955 28,000 348 411 -64
2020-08-07 12:10:31 GMT 46.239082 42.489967 28,000 348 411 -64
2020-08-07 12:10:18 GMT 46.215527 42.497452 28,000 348 410 -64
2020-08-07 12:10:07 GMT 46.196487 42.503494 28,000 348 410 0
2020-08-07 12:09:57 GMT 46.177414 42.509521 28,025 348 410 0
2020-08-07 12:09:47 GMT 46.157196 42.515854 28,000 348 409 64
2020-08-07 12:09:39 GMT 46.145142 42.519703 28,000 348 408 64
2020-08-07 12:09:36 GMT 46.138870 42.521645 28,000 348 408 192
2020-08-07 12:09:29 GMT 46.124889 42.526085 27,975 348 408 128
2020-08-07 12:09:25 GMT 46.119644 42.527740 27,975 348 408 512
2020-08-07 12:09:18 GMT 46.105988 42.531990 27,900 348 407 1024
2020-08-07 12:09:15 GMT 46.097351 42.534706 27,800 348 406 1024
2020-08-07 12:09:07 GMT 46.086594 42.538124 27,700 348 406 1024
2020-08-07 12:09:03 GMT 46.078152 42.540779 27,625 348 405 1024
2020-08-07 12:08:58 GMT 46.068466 42.543819 27,550 348 404 1024
2020-08-07 12:08:53 GMT 46.058739 42.546822 27,450 348 404 1088
2020-08-07 12:08:47 GMT 46.049473 42.549774 27,375 348 403 896
2020-08-07 12:08:42 GMT 46.038483 42.553196 27,275 348 403 1024
2020-08-07 12:08:36 GMT 46.029465 42.556011 27,200 348 403 1728
2020-08-07 12:08:27 GMT 46.011429 42.561707 26,875 348 404 1984
2020-08-07 12:08:18 GMT 45.995846 42.566734 26,600 348 402 1792
2020-08-07 12:08:15 GMT 45.991837 42.568001 26,525 348 403 1664
2020-08-07 12:08:04 GMT 45.971451 42.572639 26,250 356 401 1664
2020-08-07 12:07:55 GMT 45.953018 42.572983 25,950 4 399 1664
2020-08-07 12:07:43 GMT 45.923969 42.566048 25,675 11 398 1600
2020-08-07 12:07:35 GMT 45.918289 42.563576 25,425 18 397 1984
2020-08-07 12:07:29 GMT 45.907490 42.557877 25,200 21 396 2112
2020-08-07 12:07:25 GMT 45.900650 42.554001 25,075 21 395 2240
2020-08-07 12:07:18 GMT 45.888962 42.547371 24,825 21 395 2368
2020-08-07 12:07:15 GMT 45.883255 42.544086 24,675 21 395 2432
2020-08-07 12:07:08 GMT 45.871922 42.537689 24,425 21 395 2240
2020-08-07 12:07:04 GMT 45.865723 42.534172 24,275 21 394 2048
2020-08-07 12:06:58 GMT 45.854050 42.527538 24,050 21 393 2048
2020-08-07 12:06:53 GMT 45.847092 42.523586 23,900 21 392 2048
2020-08-07 12:06:47 GMT 45.836636 42.517708 23,700 21 391 2176
2020-08-07 12:06:44 GMT 45.830212 42.514069 23,550 21 390 2112
2020-08-07 12:06:37 GMT 45.819180 42.507820 23,325 21 389 2176
2020-08-07 12:06:33 GMT 45.813263 42.504429 23,200 21 388 2240
2020-08-07 12:06:27 GMT 45.801441 42.497726 22,925 21 387 2432
2020-08-07 12:06:23 GMT 45.796600 42.494980 22,800 21 387 2496
2020-08-07 12:06:16 GMT 45.784172 42.487976 22,500 21 386 2240
2020-08-07 12:06:12 GMT 45.779099 42.485092 22,375 21 386 2176
2020-08-07 12:06:06 GMT 45.762314 42.475624 22,025 21 383 2240
2020-08-07 12:05:55 GMT 45.749863 42.468590 21,750 21 381 2432
2020-08-07 12:05:51 GMT 45.744511 42.465591 21,600 21 381 2560
2020-08-07 12:05:45 GMT 45.731754 42.458382 21,275 21 380 2880
2020-08-07 12:05:41 GMT 45.726929 42.455662 21,125 21 381 2752
2020-08-07 12:05:34 GMT 45.715439 42.449162 20,800 21 380 2240
2020-08-07 12:05:23 GMT 45.695770 42.438126 20,400 21 378 1856
2020-08-07 12:05:13 GMT 45.673599 42.425583 19,925 21 370 2368
2020-08-07 12:04:57 GMT 45.649017 42.411781 19,300 21 366 2752
2020-08-07 12:04:42 GMT 45.632492 42.402538 18,825 21 366 2624
2020-08-07 12:04:31 GMT 45.608345 42.388962 18,150 21 362 2560
2020-08-07 12:04:17 GMT 45.591934 42.379761 17,725 21 360 2624
2020-08-07 12:04:06 GMT 45.575710 42.370628 17,250 21 357 2560
2020-08-07 12:03:56 GMT 45.559479 42.361542 16,800 21 354 2752
2020-08-07 12:03:45 GMT 45.543495 42.352562 16,375 21 351 1728
2020-08-07 12:03:35 GMT 45.527622 42.343586 16,025 21 344 2688
2020-08-07 12:03:24 GMT 45.512726 42.335213 15,550 20 342 2944
2020-08-07 12:03:14 GMT 45.496262 42.327377 15,100 16 342 1472
2020-08-07 12:03:03 GMT 45.480972 42.321560 14,850 13 341 1472
2020-08-07 12:02:53 GMT 45.465088 42.316917 14,600 10 341 1600
2020-08-07 12:02:42 GMT 45.448624 42.312840 14,325 9 340 1600
2020-08-07 12:02:32 GMT 45.432564 42.308819 14,050 9 340 1344
2020-08-07 12:02:22 GMT 45.416336 42.304688 13,825 10 337 1728
2020-08-07 12:02:11 GMT 45.401138 42.300896 13,425 9 334 3264
2020-08-07 12:02:00 GMT 45.384708 42.296825 12,850 10 333 3264
2020-08-07 12:01:49 GMT 45.366135 42.292137 12,175 9 331 3072
2020-08-07 12:01:39 GMT 45.350910 42.288387 11,650 9 329 2880
2020-08-07 12:01:28 GMT 45.335999 42.284740 11,200 9 325 1984
2020-08-07 12:01:17 GMT 45.320343 42.280884 10,900 9 314 832
2020-08-07 12:01:08 GMT 45.306198 42.277416 10,775 9 297 1600
2020-08-07 12:00:57 GMT 45.292374 42.274082 10,425 9 285 3392
2020-08-07 12:00:47 GMT 45.279053 42.270878 9,825 9 283 3200
2020-08-07 12:00:36 GMT 45.264908 42.267609 9,225 9 283 3456
2020-08-07 12:00:25 GMT 45.250126 42.264336 8,600 8 281 2816
2020-08-07 12:00:14 GMT 45.236115 42.261391 8,075 8 276 2752
2020-08-07 12:00:04 GMT 45.223434 42.258846 7,600 7 272 2944
2020-08-07 11:59:53 GMT 45.210709 42.256493 7,025 7 270 3904
2020-08-07 11:59:42 GMT 45.197754 42.254135 6,350 7 266 3328
2020-08-07 11:59:32 GMT 45.183289 42.251259 5,775 8 260 1408
2020-08-07 11:59:21 GMT 45.170849 42.247791 5,600 15 241 640
2020-08-07 11:59:09 GMT 45.160606 42.241898 5,475 32 226 1472
2020-08-07 11:59:00 GMT 45.152832 42.231647 5,250 56 209 1408
2020-08-07 11:58:48 GMT 45.147709 42.219990 4,975 58 193 1344
2020-08-07 11:58:39 GMT 45.141006 42.204449 4,675 58 166 1280
2020-08-07 11:58:23 GMT 45.136917 42.195019 4,425 58 161 2048
2020-08-07 11:58:13 GMT 45.132812 42.185223 4,050 59 160 2304
2020-08-07 11:58:01 GMT 45.128860 42.175663 3,600 59 162 2816
2020-08-07 11:57:51 GMT 45.124760 42.166130 3,175 58 159 1984
2020-08-07 11:57:40 GMT 45.120758 42.156895 2,850 59 155 1600
2020-08-07 11:57:31 GMT 45.117188 42.148003 2,600 62 151 1152
2020-08-07 11:57:20 GMT 45.114193 42.138798 2,350 72 144 2368
2020-08-07 11:57:10 GMT 45.112377 42.129150 1,925 75 146 2624

Making use of Plane Finder data

You are free to use the raw flight data, aircraft information and images provided in this report for your own purposes provided the data is correctly attributed to Plane Finder. We ask that you please credit Plane Finder and link to planefinder.net in close proximity to the content.

Optionally one of the following logos (no smaller then 150x24px) can be used and must link to planefinder.net

Embedding the Plane Finder map

You are welcome to embed the Plane Finder playback map on your website to offer visitors a more interactive experience. We suggest using the following HTML code:

<iframe src="//planefinder.net/data/report/SU1367-RA-89103-7700-squawk-2020-08-07/map" width="800" height="600" seamless="seamless"></iframe>

Where our data comes from

Plane Finder has a global network of data feeds and antenna radars that receive data broadcast directly from aircraft. The primary technologies used are ADS-B and MLAT. We also show feeds from the FAA and a FLARM glider feed.

Click here to find out more about the Plane Finder network.

How we collect our data